createdAt,value
2019-01-31T00:00:44.461Z,0.97
2019-01-31T00:05:01.938Z,1.10
2019-01-31T00:09:11.679Z,1.00
2019-01-31T00:13:16.751Z,0.87
2019-01-31T00:17:46.394Z,0.80
2019-01-31T00:21:59.984Z,0.70
2019-01-31T00:26:18.996Z,1.10
2019-01-31T00:30:42.607Z,1.00
2019-01-31T00:35:15.404Z,0.73
2019-01-31T00:39:39.128Z,0.80
2019-01-31T00:43:50.541Z,0.70
2019-01-31T00:47:53.773Z,0.60
2019-01-31T00:52:23.370Z,0.63
2019-01-31T00:56:33.956Z,0.80
2019-01-31T01:00:45.384Z,0.70
2019-01-31T01:05:11.393Z,0.70
2019-01-31T01:09:13.756Z,0.67
2019-01-31T01:13:25.066Z,0.63
2019-01-31T01:17:30.373Z,0.70
2019-01-31T01:21:53.999Z,0.60
2019-01-31T01:25:56.476Z,0.80
2019-01-31T01:30:04.828Z,0.57
2019-01-31T01:34:25.063Z,0.70
2019-01-31T01:38:33.159Z,0.70
2019-01-31T01:42:53.923Z,0.73
2019-01-31T01:47:02.004Z,0.80
2019-01-31T01:51:07.279Z,0.90
2019-01-31T01:55:15.164Z,1.20
2019-01-31T01:59:33.816Z,0.50
2019-01-31T02:03:41.945Z,0.80
2019-01-31T02:07:53.113Z,1.30
2019-01-31T02:12:16.524Z,0.90
2019-01-31T02:16:33.396Z,0.80
2019-01-31T02:20:53.496Z,0.80
2019-01-31T02:25:01.689Z,0.80
2019-01-31T02:29:16.012Z,0.90
2019-01-31T02:33:33.549Z,1.10
2019-01-31T02:37:44.724Z,0.60
2019-01-31T02:42:08.064Z,0.60
2019-01-31T02:46:22.556Z,0.70
2019-01-31T02:50:42.755Z,0.70
2019-01-31T02:54:48.213Z,0.60
2019-01-31T02:58:53.244Z,0.70
2019-01-31T03:03:10.415Z,0.77
2019-01-31T03:07:27.777Z,0.88
2019-01-31T03:11:32.760Z,1.03
2019-01-31T03:15:44.138Z,0.97
2019-01-31T03:20:08.448Z,1.57
2019-01-31T03:24:30.580Z,1.02
2019-01-31T03:28:52.579Z,1.10
2019-01-31T03:33:14.249Z,0.93
2019-01-31T03:37:28.605Z,1.00
2019-01-31T03:41:58.296Z,1.00
2019-01-31T03:46:20.480Z,0.90
2019-01-31T03:50:22.868Z,1.10
2019-01-31T03:54:36.876Z,1.10
2019-01-31T03:58:47.924Z,1.00
2019-01-31T04:02:50.292Z,1.10
2019-01-31T04:06:49.398Z,0.80
2019-01-31T04:10:48.527Z,1.03
2019-01-31T04:14:48.619Z,1.00
2019-01-31T04:18:47.782Z,1.07
2019-01-31T04:22:47.988Z,1.07
2019-01-31T04:26:47.120Z,1.03
2019-01-31T04:30:46.252Z,0.93
2019-01-31T04:34:45.418Z,1.30
2019-01-31T04:38:45.501Z,0.90
2019-01-31T04:42:44.753Z,0.90
2019-01-31T04:46:43.869Z,0.80
2019-01-31T04:50:42.986Z,0.77
2019-01-31T04:54:42.095Z,0.60
2019-01-31T04:58:41.207Z,1.20
2019-01-31T05:02:40.329Z,1.10
2019-01-31T05:06:39.428Z,1.30
2019-01-31T05:10:43.308Z,1.30
2019-01-31T05:14:39.371Z,1.30
2019-01-31T05:18:38.737Z,1.20
2019-01-31T05:22:37.801Z,1.33
2019-01-31T05:26:36.913Z,0.90
2019-01-31T05:30:36.102Z,1.93
2019-01-31T05:34:35.204Z,1.17
2019-01-31T05:38:34.316Z,0.80
2019-01-31T05:42:33.424Z,1.20
2019-01-31T05:46:32.536Z,1.20
2019-01-31T05:50:31.653Z,0.97
2019-01-31T05:54:30.847Z,0.80
2019-01-31T05:58:30.044Z,1.07
2019-01-31T06:02:29.140Z,1.17
2019-01-31T06:06:28.260Z,1.10
2019-01-31T06:10:27.381Z,1.10
2019-01-31T06:14:26.490Z,1.20
2019-01-31T06:18:25.775Z,1.30
2019-01-31T06:22:25.174Z,1.23
2019-01-31T06:26:24.484Z,1.00
2019-01-31T06:30:23.607Z,1.00
2019-01-31T06:34:22.728Z,1.00
2019-01-31T06:38:21.828Z,1.20
2019-01-31T06:42:20.949Z,1.17
2019-01-31T06:46:20.078Z,1.63
2019-01-31T06:50:19.181Z,1.17
2019-01-31T06:54:19.356Z,1.17
2019-01-31T06:58:18.477Z,1.67
2019-01-31T07:02:17.680Z,1.17
2019-01-31T07:06:16.823Z,1.10
2019-01-31T07:10:21.620Z,1.77
2019-01-31T07:14:20.742Z,1.40
2019-01-31T07:18:19.856Z,2.40
2019-01-31T07:22:19.976Z,2.67
2019-01-31T07:26:19.100Z,1.80
2019-01-31T07:30:20.347Z,1.83
2019-01-31T07:34:19.552Z,1.50
2019-01-31T07:38:18.681Z,2.00
2019-01-31T07:42:17.800Z,1.77
2019-01-31T07:46:16.994Z,1.03
2019-01-31T07:50:18.148Z,2.87
2019-01-31T07:54:17.268Z,1.30
2019-01-31T07:58:16.384Z,1.60
2019-01-31T08:02:15.489Z,2.10
2019-01-31T08:06:14.605Z,2.70
2019-01-31T08:10:19.680Z,1.90
2019-01-31T08:14:18.802Z,1.90
2019-01-31T08:18:17.913Z,2.57
2019-01-31T08:22:17.098Z,1.93
2019-01-31T08:26:16.201Z,2.27
2019-01-31T08:30:18.078Z,2.27
2019-01-31T08:34:17.180Z,2.43
2019-01-31T08:38:16.296Z,4.20
2019-01-31T08:42:15.438Z,2.60
2019-01-31T08:46:14.579Z,3.20
2019-01-31T08:50:19.127Z,3.97
2019-01-31T08:54:19.320Z,4.83
2019-01-31T08:58:18.785Z,5.67
2019-01-31T09:02:18.057Z,7.90
2019-01-31T09:06:18.054Z,4.07
2019-01-31T09:10:34.969Z,9.83
2019-01-31T09:14:34.085Z,4.80
2019-01-31T09:18:33.226Z,7.00
2019-01-31T09:22:33.226Z,6.33
2019-01-31T09:26:48.880Z,6.73
2019-01-31T09:30:56.974Z,8.83
2019-01-31T09:35:11.345Z,6.83
2019-01-31T09:39:16.659Z,5.90
2019-01-31T09:43:28.123Z,5.10
2019-01-31T09:47:36.580Z,5.80
2019-01-31T09:51:44.789Z,8.23
2019-01-31T09:56:13.141Z,6.43
2019-01-31T10:00:27.602Z,5.97
2019-01-31T10:04:31.315Z,7.80
2019-01-31T10:08:45.500Z,5.33
2019-01-31T10:12:56.706Z,5.23
2019-01-31T10:17:02.138Z,4.70
2019-01-31T10:21:07.007Z,4.63
2019-01-31T10:25:12.159Z,4.65
2019-01-31T10:29:32.800Z,4.43
2019-01-31T10:33:54.888Z,4.70
2019-01-31T10:37:57.255Z,4.70
2019-01-31T10:42:02.277Z,5.80
2019-01-31T10:46:07.404Z,6.70
2019-01-31T10:50:41.817Z,4.87
2019-01-31T10:54:49.859Z,5.50
2019-01-31T10:58:57.864Z,5.90
2019-01-31T11:03:03.196Z,4.13
2019-01-31T11:07:23.540Z,5.33
2019-01-31T11:11:52.688Z,5.30
2019-01-31T11:16:01.064Z,5.60
2019-01-31T11:20:36.745Z,6.03
2019-01-31T11:24:59.608Z,4.40
2019-01-31T11:29:24.889Z,3.93
2019-01-31T11:33:56.333Z,3.90
2019-01-31T11:38:04.532Z,5.07
2019-01-31T11:42:15.804Z,4.47
2019-01-31T11:46:21.055Z,4.30
2019-01-31T11:50:43.115Z,5.60
2019-01-31T11:54:45.470Z,3.73
2019-01-31T11:58:49.766Z,5.03
2019-01-31T12:02:55.193Z,4.40
2019-01-31T12:06:50.788Z,4.27
2019-01-31T12:10:49.884Z,4.10
2019-01-31T12:14:49.126Z,3.97
2019-01-31T12:18:48.289Z,5.13
2019-01-31T12:22:47.400Z,5.50
2019-01-31T12:26:46.496Z,4.90
2019-01-31T12:30:45.615Z,4.17
2019-01-31T12:34:44.712Z,4.73
2019-01-31T12:38:43.828Z,5.70
2019-01-31T12:42:42.921Z,4.50
2019-01-31T12:46:42.033Z,4.00
2019-01-31T12:50:42.208Z,4.67
2019-01-31T12:54:41.325Z,4.23
2019-01-31T12:58:40.422Z,4.40
2019-01-31T13:02:39.541Z,4.00
2019-01-31T13:06:38.636Z,4.57
2019-01-31T13:10:37.753Z,4.00
2019-01-31T13:14:37.921Z,3.43
2019-01-31T13:18:37.047Z,4.43
2019-01-31T13:22:36.140Z,4.30
2019-01-31T13:26:35.252Z,3.67
2019-01-31T13:30:34.360Z,2.93
2019-01-31T13:34:33.460Z,3.20
2019-01-31T13:38:32.572Z,5.20
2019-01-31T13:42:31.710Z,3.70
2019-01-31T13:46:30.804Z,3.10
2019-01-31T13:50:29.934Z,3.40
2019-01-31T13:54:29.032Z,4.70
2019-01-31T13:58:28.164Z,2.20
2019-01-31T14:02:27.264Z,2.80
2019-01-31T14:06:26.398Z,4.27
2019-01-31T14:10:26.647Z,3.90
2019-01-31T14:14:25.760Z,2.80
2019-01-31T14:18:24.876Z,3.83
2019-01-31T14:22:24.036Z,5.77
2019-01-31T14:26:23.165Z,3.50
2019-01-31T14:30:30.140Z,4.25
2019-01-31T14:34:29.240Z,4.00
2019-01-31T14:38:28.335Z,3.40
2019-01-31T14:42:27.452Z,3.00
2019-01-31T14:46:26.567Z,5.83
2019-01-31T14:50:31.715Z,2.70
2019-01-31T14:54:30.829Z,4.17
2019-01-31T14:58:29.944Z,3.17
2019-01-31T15:02:29.042Z,2.70
2019-01-31T15:06:28.156Z,5.60
2019-01-31T15:10:30.263Z,4.10
2019-01-31T15:14:31.866Z,2.87
2019-01-31T15:18:30.335Z,2.97
2019-01-31T15:22:29.444Z,2.07
2019-01-31T15:26:29.082Z,2.77
2019-01-31T15:30:34.826Z,2.55
2019-01-31T15:34:34.865Z,1.90
2019-01-31T15:38:33.991Z,3.87
2019-01-31T15:42:33.420Z,2.20
2019-01-31T15:46:32.836Z,4.07
2019-01-31T15:50:32.128Z,5.80
2019-01-31T15:54:31.235Z,7.43
2019-01-31T15:58:32.730Z,5.10
2019-01-31T16:02:31.980Z,2.90
2019-01-31T16:06:31.233Z,1.98
2019-01-31T16:10:30.332Z,1.60
2019-01-31T16:14:29.660Z,1.60
2019-01-31T16:18:28.765Z,1.47
2019-01-31T16:22:28.378Z,2.10
2019-01-31T16:26:27.480Z,2.60
2019-01-31T16:30:27.098Z,2.67
2019-01-31T16:34:26.280Z,3.20
2019-01-31T16:38:25.409Z,2.20
2019-01-31T16:42:24.580Z,2.10
2019-01-31T16:46:24.081Z,2.70
2019-01-31T16:50:24.225Z,2.47
2019-01-31T16:54:23.788Z,2.22
2019-01-31T16:58:22.892Z,2.20
2019-01-31T17:02:23.365Z,2.00
2019-01-31T17:06:22.529Z,1.97
2019-01-31T17:10:21.675Z,2.60
2019-01-31T17:14:20.783Z,3.27
2019-01-31T17:18:19.910Z,3.93
2019-01-31T17:22:19.012Z,7.50
2019-01-31T17:26:18.477Z,6.97
2019-01-31T17:30:25.472Z,5.53
2019-01-31T17:34:24.820Z,3.90
2019-01-31T17:38:23.922Z,3.23
2019-01-31T17:42:23.514Z,3.57
2019-01-31T17:46:22.853Z,2.90
2019-01-31T17:50:22.137Z,3.00
2019-01-31T17:54:21.428Z,2.40
2019-01-31T17:58:20.964Z,2.50
2019-01-31T18:02:20.068Z,2.40
2019-01-31T18:06:19.825Z,2.10
2019-01-31T18:10:22.600Z,2.20
2019-01-31T18:14:22.015Z,2.30
2019-01-31T18:18:21.112Z,2.70
2019-01-31T18:22:20.516Z,2.60
2019-01-31T18:26:19.678Z,2.43
2019-01-31T18:30:25.011Z,2.30
2019-01-31T18:34:24.115Z,2.60
2019-01-31T18:38:23.354Z,2.20
2019-01-31T18:42:23.028Z,1.90
2019-01-31T18:46:23.033Z,1.67
2019-01-31T18:50:24.172Z,2.00
2019-01-31T18:54:24.063Z,2.10
2019-01-31T18:58:24.141Z,2.73
2019-01-31T19:02:23.670Z,1.97
2019-01-31T19:06:23.009Z,2.70
2019-01-31T19:10:22.243Z,2.70
2019-01-31T19:14:21.684Z,2.40
2019-01-31T19:18:21.581Z,5.60
2019-01-31T19:22:21.353Z,3.97
2019-01-31T19:26:21.051Z,6.17
2019-01-31T19:30:25.877Z,3.60
2019-01-31T19:34:26.048Z,3.97
2019-01-31T19:38:25.683Z,5.43
2019-01-31T19:42:25.592Z,4.20
2019-01-31T19:46:25.733Z,3.50
2019-01-31T19:50:25.721Z,3.10
2019-01-31T19:54:27.237Z,3.00
2019-01-31T19:58:27.040Z,3.90
2019-01-31T20:02:26.999Z,3.63
2019-01-31T20:06:27.001Z,2.90
2019-01-31T20:10:30.803Z,2.57
2019-01-31T20:14:30.165Z,3.80
2019-01-31T20:18:29.948Z,2.57
2019-01-31T20:22:29.203Z,3.10
2019-01-31T20:26:30.060Z,3.10
2019-01-31T20:30:31.363Z,2.40
2019-01-31T20:34:31.220Z,2.90
2019-01-31T20:38:32.148Z,3.37
2019-01-31T20:42:31.885Z,5.47
2019-01-31T20:46:39.851Z,3.87
2019-01-31T20:50:35.189Z,3.47
2019-01-31T20:54:34.777Z,3.10
2019-01-31T20:58:35.544Z,2.53
2019-01-31T21:02:34.822Z,3.57
2019-01-31T21:06:41.253Z,3.50
2019-01-31T21:10:35.229Z,4.23
2019-01-31T21:14:35.445Z,3.40
2019-01-31T21:18:34.560Z,5.15
2019-01-31T21:22:33.806Z,3.63
2019-01-31T21:26:33.268Z,3.57
2019-01-31T21:30:37.136Z,3.87
2019-01-31T21:34:36.431Z,4.50
2019-01-31T21:38:35.576Z,3.27
2019-01-31T21:42:35.131Z,4.87
2019-01-31T21:46:34.301Z,4.73
2019-01-31T21:50:33.425Z,3.90
2019-01-31T21:54:32.541Z,5.30
2019-01-31T21:58:31.652Z,3.10
2019-01-31T22:02:30.753Z,3.43
2019-01-31T22:06:30.181Z,6.33
2019-01-31T22:10:29.296Z,3.57
2019-01-31T22:14:28.456Z,5.33
2019-01-31T22:18:27.575Z,3.60
2019-01-31T22:22:26.696Z,4.50
2019-01-31T22:26:25.917Z,3.57
2019-01-31T22:30:30.435Z,3.60
2019-01-31T22:34:29.553Z,5.50
2019-01-31T22:38:28.769Z,3.57
2019-01-31T22:42:27.865Z,3.27
2019-01-31T22:46:26.977Z,3.80
2019-01-31T22:50:26.103Z,3.97
2019-01-31T22:54:25.208Z,3.90
2019-01-31T22:58:24.417Z,4.33
2019-01-31T23:02:23.511Z,4.50
2019-01-31T23:06:22.708Z,3.70
2019-01-31T23:10:21.828Z,3.90
2019-01-31T23:14:21.128Z,4.10
2019-01-31T23:18:20.231Z,4.40
2019-01-31T23:22:19.391Z,5.17
2019-01-31T23:26:18.531Z,4.73
2019-01-31T23:30:17.725Z,4.57
2019-01-31T23:34:16.836Z,4.50
2019-01-31T23:38:15.958Z,4.77
2019-01-31T23:42:15.102Z,5.57
2019-01-31T23:46:14.205Z,4.43
2019-01-31T23:50:13.393Z,6.60
2019-01-31T23:54:12.491Z,5.00
2019-01-31T23:58:11.617Z,5.63
